createdAt,value
2018-10-05T00:01:02.408Z,5.03
2018-10-05T00:03:31.341Z,5.05
2018-10-05T00:06:00.271Z,5.75
2018-10-05T00:08:29.045Z,5.35
2018-10-05T00:10:57.761Z,4.80
2018-10-05T00:13:26.488Z,5.62
2018-10-05T00:15:55.140Z,5.35
2018-10-05T00:18:23.764Z,6.08
2018-10-05T00:20:52.501Z,5.47
2018-10-05T00:23:21.108Z,5.55
2018-10-05T00:25:49.976Z,5.08
2018-10-05T00:28:18.620Z,5.05
2018-10-05T00:30:47.320Z,7.50
2018-10-05T00:33:15.996Z,5.40
2018-10-05T00:35:44.777Z,5.67
2018-10-05T00:38:13.426Z,5.45
2018-10-05T00:40:42.133Z,6.10
2018-10-05T00:43:10.820Z,4.87
2018-10-05T00:45:39.528Z,5.22
2018-10-05T00:48:08.157Z,5.33
2018-10-05T00:50:36.930Z,5.35
2018-10-05T00:53:05.721Z,5.12
2018-10-05T00:55:34.448Z,6.15
2018-10-05T00:58:03.285Z,5.35
2018-10-05T01:00:31.897Z,5.00
2018-10-05T01:03:00.528Z,5.03
2018-10-05T01:05:29.295Z,5.17
2018-10-05T01:07:58.270Z,4.70
2018-10-05T01:10:26.878Z,5.47
2018-10-05T01:12:55.549Z,5.03
2018-10-05T01:15:24.313Z,5.47
2018-10-05T01:17:53.130Z,5.90
2018-10-05T01:20:21.940Z,5.58
2018-10-05T01:22:51.058Z,5.10
2018-10-05T01:25:19.920Z,5.75
2018-10-05T01:27:48.592Z,5.90
2018-10-05T01:30:17.268Z,6.15
2018-10-05T01:32:46.053Z,6.00
2018-10-05T01:35:15.208Z,5.75
2018-10-05T01:37:43.947Z,5.17
2018-10-05T01:40:12.583Z,5.97
2018-10-05T01:42:41.279Z,6.22
2018-10-05T01:45:10.016Z,5.83
2018-10-05T01:47:38.699Z,5.28
2018-10-05T01:50:07.299Z,6.33
2018-10-05T01:52:35.934Z,6.15
2018-10-05T01:55:04.677Z,5.78
2018-10-05T01:57:33.432Z,5.62
2018-10-05T02:00:02.092Z,5.37
2018-10-05T02:02:30.847Z,5.90
2018-10-05T02:04:59.457Z,5.37
2018-10-05T02:07:28.176Z,5.45
2018-10-05T02:09:56.825Z,6.25
2018-10-05T02:12:25.726Z,5.03
2018-10-05T02:14:54.412Z,6.00
2018-10-05T02:17:23.228Z,6.15
2018-10-05T02:19:52.101Z,5.50
2018-10-05T02:22:20.876Z,5.47
2018-10-05T02:24:49.548Z,5.65
2018-10-05T02:27:18.358Z,6.25
2018-10-05T02:29:47.017Z,6.53
2018-10-05T02:32:15.729Z,5.53
2018-10-05T02:34:44.333Z,5.15
2018-10-05T02:37:13.073Z,5.90
2018-10-05T02:39:41.707Z,5.95
2018-10-05T02:42:10.358Z,5.90
2018-10-05T02:44:39.037Z,5.30
2018-10-05T02:47:07.641Z,5.70
2018-10-05T02:49:36.478Z,5.90
2018-10-05T02:52:05.157Z,6.12
2018-10-05T02:54:33.965Z,6.03
2018-10-05T02:57:02.785Z,5.30
2018-10-05T02:59:31.589Z,5.33
2018-10-05T03:02:22.511Z,6.40
2018-10-05T03:04:51.148Z,5.47
2018-10-05T03:07:19.804Z,5.70
2018-10-05T03:09:48.453Z,5.65
2018-10-05T03:12:17.173Z,6.15
2018-10-05T03:14:46.044Z,5.83
2018-10-05T03:17:15.144Z,5.78
2018-10-05T03:19:43.931Z,5.40
2018-10-05T03:22:12.552Z,5.95
2018-10-05T03:24:41.553Z,6.05
2018-10-05T03:27:10.258Z,5.75
2018-10-05T03:29:38.921Z,6.55
2018-10-05T03:32:08.086Z,6.87
2018-10-05T03:34:36.777Z,6.08
2018-10-05T03:37:05.480Z,6.65
2018-10-05T03:39:34.170Z,6.08
2018-10-05T03:42:02.888Z,7.00
2018-10-05T03:44:31.697Z,7.17
2018-10-05T03:47:00.561Z,6.35
2018-10-05T03:49:29.209Z,7.15
2018-10-05T03:51:58.045Z,7.03
2018-10-05T03:54:27.095Z,7.17
2018-10-05T03:56:56.008Z,6.37
2018-10-05T03:59:24.930Z,6.80
2018-10-05T04:01:53.666Z,7.08
2018-10-05T04:04:22.417Z,6.03
2018-10-05T04:06:51.128Z,7.00
2018-10-05T04:09:19.993Z,7.20
2018-10-05T04:11:48.877Z,6.50
2018-10-05T04:14:17.548Z,7.62
2018-10-05T04:16:46.396Z,7.60
2018-10-05T04:19:14.993Z,7.17
2018-10-05T04:21:43.666Z,5.78
2018-10-05T04:24:12.367Z,6.05
2018-10-05T04:26:41.096Z,6.72
2018-10-05T04:29:09.945Z,7.20
2018-10-05T04:31:38.560Z,6.80
2018-10-05T04:34:07.245Z,7.22
2018-10-05T04:36:36.021Z,7.83
2018-10-05T04:39:06.010Z,7.37
2018-10-05T04:41:34.969Z,7.83
2018-10-05T04:44:03.817Z,6.40
2018-10-05T04:46:32.596Z,7.50
2018-10-05T04:49:01.429Z,6.80
2018-10-05T04:51:30.285Z,6.35
2018-10-05T04:53:58.978Z,8.03
2018-10-05T04:56:27.754Z,6.55
2018-10-05T04:58:56.423Z,7.20
2018-10-05T05:01:25.136Z,6.95
2018-10-05T05:03:53.800Z,6.65
2018-10-05T05:06:22.566Z,6.80
2018-10-05T05:08:51.277Z,7.10
2018-10-05T05:11:19.946Z,7.33
2018-10-05T05:13:48.765Z,7.08
2018-10-05T05:16:17.376Z,6.78
2018-10-05T05:18:46.094Z,6.75
2018-10-05T05:21:14.881Z,6.53
2018-10-05T05:23:43.500Z,6.47
2018-10-05T05:26:12.236Z,6.75
2018-10-05T05:28:40.901Z,6.70
2018-10-05T05:31:09.509Z,7.40
2018-10-05T05:33:38.319Z,6.00
2018-10-05T05:36:08.804Z,6.00
2018-10-05T05:38:37.567Z,7.37
2018-10-05T05:41:06.763Z,7.60
2018-10-05T05:43:35.642Z,8.55
2018-10-05T05:46:04.346Z,9.40
2018-10-05T05:48:33.006Z,8.85
2018-10-05T05:51:01.683Z,7.83
2018-10-05T05:53:30.297Z,7.50
2018-10-05T05:55:59.032Z,7.55
2018-10-05T05:58:27.848Z,7.37
2018-10-05T06:00:56.650Z,8.40
2018-10-05T06:03:25.431Z,7.30
2018-10-05T06:05:54.189Z,8.73
2018-10-05T06:08:22.910Z,9.55
2018-10-05T06:10:51.672Z,11.57
2018-10-05T06:13:20.505Z,11.03
2018-10-05T06:15:49.346Z,12.30
2018-10-05T06:18:17.960Z,10.70
2018-10-05T06:20:46.628Z,11.48
2018-10-05T06:23:15.348Z,12.73
2018-10-05T06:25:44.295Z,11.97
2018-10-05T06:28:13.224Z,11.33
2018-10-05T06:30:42.030Z,10.65
2018-10-05T06:33:10.716Z,12.25
2018-10-05T06:35:39.502Z,12.50
2018-10-05T06:38:08.235Z,11.03
2018-10-05T06:40:36.953Z,11.57
2018-10-05T06:43:06.187Z,11.88
2018-10-05T06:45:35.244Z,10.95
2018-10-05T06:48:04.409Z,10.38
2018-10-05T06:50:33.159Z,11.78
2018-10-05T06:53:01.816Z,11.43
2018-10-05T06:55:30.559Z,12.80
2018-10-05T06:57:59.337Z,11.88
2018-10-05T07:00:28.036Z,12.20
2018-10-05T07:02:56.693Z,11.40
2018-10-05T07:05:25.516Z,11.40
2018-10-05T07:07:54.171Z,10.50
2018-10-05T07:10:22.997Z,12.37
2018-10-05T07:12:51.637Z,12.20
2018-10-05T07:15:20.305Z,11.78
2018-10-05T07:17:48.921Z,11.55
2018-10-05T07:20:17.657Z,10.45
2018-10-05T07:22:46.582Z,13.03
2018-10-05T07:25:15.317Z,11.83
2018-10-05T07:27:43.957Z,11.80
2018-10-05T07:30:12.629Z,13.18
2018-10-05T07:32:41.538Z,12.60
2018-10-05T07:35:10.317Z,11.60
2018-10-05T07:37:39.289Z,11.70
2018-10-05T07:40:08.044Z,11.55
2018-10-05T07:42:37.361Z,13.78
2018-10-05T07:45:06.107Z,11.38
2018-10-05T07:47:34.719Z,11.55
2018-10-05T07:50:03.720Z,11.48
2018-10-05T07:52:32.633Z,12.28
2018-10-05T07:55:01.391Z,12.45
2018-10-05T07:57:30.390Z,12.03
2018-10-05T07:59:58.981Z,13.80
2018-10-05T08:02:28.013Z,12.80
2018-10-05T08:04:57.144Z,14.20
2018-10-05T08:07:25.825Z,15.40
2018-10-05T08:09:54.506Z,14.40
2018-10-05T08:12:23.394Z,16.62
2018-10-05T08:14:52.110Z,14.75
2018-10-05T08:17:20.960Z,15.95
2018-10-05T08:19:49.726Z,14.13
2018-10-05T08:22:18.372Z,13.30
2018-10-05T08:24:47.271Z,13.47
2018-10-05T08:27:15.991Z,14.20
2018-10-05T08:29:44.668Z,13.80
2018-10-05T08:32:13.453Z,12.93
2018-10-05T08:34:42.178Z,13.00
2018-10-05T08:37:10.877Z,14.23
2018-10-05T08:39:39.709Z,12.07
2018-10-05T08:42:08.386Z,14.30
2018-10-05T08:44:37.165Z,13.30
2018-10-05T08:47:06.036Z,13.83
2018-10-05T08:49:34.928Z,12.30
2018-10-05T08:52:04.049Z,12.70
2018-10-05T08:54:32.840Z,14.60
2018-10-05T08:57:01.512Z,12.03
2018-10-05T08:59:30.264Z,12.40
2018-10-05T09:01:59.156Z,11.40
2018-10-05T09:04:28.022Z,13.63
2018-10-05T09:06:56.807Z,12.97
2018-10-05T09:09:25.534Z,13.30
2018-10-05T09:11:54.725Z,11.90
2018-10-05T09:14:23.341Z,12.70
2018-10-05T09:16:52.221Z,12.73
2018-10-05T09:19:20.810Z,13.03
2018-10-05T09:21:49.521Z,12.37
2018-10-05T09:24:18.407Z,12.00
2018-10-05T09:26:47.084Z,10.73
2018-10-05T09:29:15.846Z,11.90
2018-10-05T09:31:44.720Z,11.93
2018-10-05T09:34:13.508Z,11.90
2018-10-05T09:36:42.348Z,12.73
2018-10-05T09:39:11.073Z,12.07
2018-10-05T09:41:39.915Z,11.17
2018-10-05T09:44:08.857Z,10.60
2018-10-05T09:46:37.701Z,11.47
2018-10-05T09:49:06.420Z,11.43
2018-10-05T09:51:35.057Z,11.60
2018-10-05T09:54:04.068Z,10.70
2018-10-05T09:56:32.366Z,11.33
2018-10-05T09:59:00.725Z,9.97
2018-10-05T10:01:34.476Z,11.00
2018-10-05T10:04:02.768Z,11.13
2018-10-05T10:06:31.055Z,11.87
2018-10-05T10:08:59.444Z,10.60
2018-10-05T10:11:27.900Z,10.73
2018-10-05T10:13:56.334Z,10.43
2018-10-05T10:16:24.520Z,10.43
2018-10-05T10:18:52.793Z,11.97
2018-10-05T10:21:21.404Z,11.00
2018-10-05T10:23:49.832Z,11.30
2018-10-05T10:26:18.119Z,9.90
2018-10-05T10:28:46.617Z,10.77
2018-10-05T10:31:14.725Z,11.70
2018-10-05T10:33:43.087Z,10.70
2018-10-05T10:36:11.303Z,11.53
2018-10-05T10:38:39.672Z,9.73
2018-10-05T10:41:08.100Z,10.00
2018-10-05T10:43:36.624Z,10.10
2018-10-05T10:46:05.158Z,10.40
2018-10-05T10:48:33.476Z,10.17
2018-10-05T10:51:01.942Z,10.23
2018-10-05T10:53:30.412Z,10.13
2018-10-05T10:55:59.096Z,10.67
2018-10-05T10:58:27.403Z,11.93
2018-10-05T11:00:55.792Z,10.87
2018-10-05T11:03:24.091Z,10.37
2018-10-05T11:05:52.636Z,11.63
2018-10-05T11:08:20.944Z,11.10
2018-10-05T11:10:49.497Z,10.13
2018-10-05T11:13:17.783Z,9.47
2018-10-05T11:15:46.340Z,11.70
2018-10-05T11:18:14.675Z,11.83
2018-10-05T11:20:42.963Z,11.00
2018-10-05T11:23:11.323Z,11.30
2018-10-05T11:25:39.911Z,10.93
2018-10-05T11:28:08.509Z,9.80
2018-10-05T11:30:36.991Z,11.20
2018-10-05T11:33:05.436Z,10.80
2018-10-05T11:35:33.931Z,10.33
2018-10-05T11:38:02.351Z,11.07
2018-10-05T11:40:30.657Z,11.03
2018-10-05T11:42:59.663Z,9.80
2018-10-05T11:45:28.394Z,10.43
2018-10-05T11:47:57.207Z,10.20
2018-10-05T11:50:26.263Z,10.83
2018-10-05T11:52:55.137Z,10.73
2018-10-05T11:55:24.032Z,10.97
2018-10-05T11:57:52.949Z,11.70
2018-10-05T12:00:21.719Z,11.57
2018-10-05T12:02:50.310Z,11.40
2018-10-05T12:05:19.248Z,11.53
2018-10-05T12:07:48.041Z,11.00
2018-10-05T12:10:16.726Z,10.27
2018-10-05T12:12:45.401Z,10.80
2018-10-05T12:15:14.096Z,10.87
2018-10-05T12:17:43.797Z,11.67
2018-10-05T12:20:12.586Z,11.67
2018-10-05T12:22:41.318Z,11.30
2018-10-05T12:25:10.337Z,11.30
2018-10-05T12:27:39.191Z,10.57
2018-10-05T12:30:08.183Z,10.60
2018-10-05T12:32:37.039Z,11.60
2018-10-05T12:35:05.808Z,11.80
2018-10-05T12:37:34.544Z,13.97
2018-10-05T12:40:03.237Z,11.77
2018-10-05T12:42:32.282Z,10.63
2018-10-05T12:45:01.144Z,11.40
2018-10-05T12:47:29.836Z,12.13
2018-10-05T12:49:58.600Z,10.17
2018-10-05T12:52:27.352Z,10.60
2018-10-05T12:54:56.209Z,11.30
2018-10-05T12:57:24.941Z,11.77
2018-10-05T12:59:53.665Z,10.53
2018-10-05T13:02:22.370Z,11.33
2018-10-05T13:04:51.448Z,10.00
2018-10-05T13:07:20.164Z,10.17
2018-10-05T13:09:49.022Z,9.20
2018-10-05T13:12:17.845Z,9.87
2018-10-05T13:14:46.833Z,9.93
2018-10-05T13:17:15.594Z,11.07
2018-10-05T13:19:44.641Z,9.03
2018-10-05T13:22:13.421Z,9.97
2018-10-05T13:24:42.181Z,9.00
2018-10-05T13:27:10.987Z,11.77
2018-10-05T13:29:39.946Z,10.00
2018-10-05T13:32:08.657Z,9.50
2018-10-05T13:34:37.585Z,8.30
2018-10-05T13:37:06.341Z,9.80
2018-10-05T13:39:35.094Z,8.93
2018-10-05T13:42:04.081Z,9.37
2018-10-05T13:44:32.672Z,8.43
2018-10-05T13:47:01.552Z,8.03
2018-10-05T13:49:30.297Z,9.00
2018-10-05T13:51:59.046Z,8.37
2018-10-05T13:54:28.186Z,8.20
2018-10-05T13:56:56.882Z,9.50
2018-10-05T13:59:25.600Z,8.27
2018-10-05T14:01:54.513Z,8.50
2018-10-05T14:04:23.374Z,6.67
2018-10-05T14:06:52.249Z,7.87
2018-10-05T14:09:20.942Z,8.13
2018-10-05T14:11:49.844Z,9.70
2018-10-05T14:14:18.652Z,9.30
2018-10-05T14:16:47.282Z,8.43
2018-10-05T14:19:16.187Z,8.13
2018-10-05T14:21:44.886Z,7.70
2018-10-05T14:24:13.606Z,8.27
2018-10-05T14:26:42.677Z,7.80
2018-10-05T14:29:11.558Z,7.90
2018-10-05T14:31:40.361Z,9.83
2018-10-05T14:34:09.328Z,7.97
2018-10-05T14:36:38.092Z,8.50
2018-10-05T14:39:08.474Z,8.40
2018-10-05T14:41:37.255Z,8.20
2018-10-05T14:44:06.041Z,8.80
2018-10-05T14:46:34.987Z,9.57
2018-10-05T14:49:03.705Z,9.60
2018-10-05T14:51:32.590Z,9.20
2018-10-05T14:54:01.541Z,8.70
2018-10-05T14:56:30.393Z,9.30
2018-10-05T14:58:59.072Z,10.40
2018-10-05T15:01:27.857Z,8.93
2018-10-05T15:03:56.832Z,8.90
2018-10-05T15:06:25.933Z,7.87
2018-10-05T15:08:54.605Z,9.50
2018-10-05T15:11:23.698Z,9.60
2018-10-05T15:13:52.689Z,8.43
2018-10-05T15:16:21.602Z,9.00
2018-10-05T15:18:50.544Z,8.70
2018-10-05T15:21:19.830Z,8.57
2018-10-05T15:23:48.708Z,10.43
2018-10-05T15:26:17.557Z,9.40
2018-10-05T15:28:46.666Z,8.73
2018-10-05T15:31:15.457Z,7.97
2018-10-05T15:33:44.309Z,8.73
2018-10-05T15:36:13.119Z,8.73
2018-10-05T15:38:41.880Z,8.40
2018-10-05T15:41:10.503Z,9.43
2018-10-05T15:43:39.373Z,9.33
2018-10-05T15:46:09.913Z,8.90
2018-10-05T15:48:39.036Z,8.40
2018-10-05T15:51:07.750Z,8.47
2018-10-05T15:53:36.742Z,7.30
2018-10-05T15:56:05.545Z,8.23
2018-10-05T15:58:34.563Z,7.03
2018-10-05T16:01:03.529Z,6.70
2018-10-05T16:03:32.353Z,7.20
2018-10-05T16:06:01.266Z,7.57
2018-10-05T16:08:30.197Z,7.23
2018-10-05T16:10:58.901Z,6.33
2018-10-05T16:13:27.979Z,7.40
2018-10-05T16:15:56.724Z,7.17
2018-10-05T16:18:25.503Z,6.43
2018-10-05T16:20:54.238Z,6.57
2018-10-05T16:23:23.164Z,5.50
2018-10-05T16:25:51.956Z,6.60
2018-10-05T16:28:20.791Z,5.83
2018-10-05T16:30:49.593Z,4.70
2018-10-05T16:33:18.449Z,5.00
2018-10-05T16:35:47.173Z,5.47
2018-10-05T16:38:16.234Z,4.73
2018-10-05T16:40:45.033Z,5.27
2018-10-05T16:43:13.819Z,5.30
2018-10-05T16:45:42.672Z,5.00
2018-10-05T16:48:11.309Z,4.07
2018-10-05T16:50:40.202Z,5.47
2018-10-05T16:53:08.900Z,4.70
2018-10-05T16:55:37.697Z,4.23
2018-10-05T16:58:06.749Z,4.13
2018-10-05T17:00:35.399Z,11.33
2018-10-05T17:03:04.310Z,11.27
2018-10-05T17:05:33.125Z,8.33
2018-10-05T17:08:01.887Z,6.30
2018-10-05T17:10:30.750Z,5.20
2018-10-05T17:12:59.581Z,5.47
2018-10-05T17:15:28.459Z,5.90
2018-10-05T17:17:57.481Z,5.60
2018-10-05T17:20:26.476Z,5.83
2018-10-05T17:22:55.224Z,5.37
2018-10-05T17:25:24.308Z,5.53
2018-10-05T17:27:53.481Z,5.40
2018-10-05T17:30:22.190Z,5.50
2018-10-05T17:32:51.147Z,5.60
2018-10-05T17:35:19.978Z,6.00
2018-10-05T17:37:49.028Z,6.70
2018-10-05T17:40:17.721Z,5.53
2018-10-05T17:42:46.577Z,7.17
2018-10-05T17:45:15.449Z,6.20
2018-10-05T17:47:44.348Z,6.87
2018-10-05T17:50:13.088Z,6.90
2018-10-05T17:52:41.864Z,5.90
2018-10-05T17:55:10.572Z,5.10
2018-10-05T17:57:39.242Z,5.67
2018-10-05T18:00:08.187Z,6.90
2018-10-05T18:02:36.912Z,6.63
2018-10-05T18:05:06.078Z,6.77
2018-10-05T18:07:34.913Z,6.60
2018-10-05T18:10:03.948Z,7.37
2018-10-05T18:12:32.633Z,13.67
2018-10-05T18:15:01.426Z,12.40
2018-10-05T18:17:30.499Z,20.90
2018-10-05T18:19:59.356Z,31.50
2018-10-05T18:22:28.133Z,18.10
2018-10-05T18:24:56.821Z,12.73
2018-10-05T18:27:25.502Z,9.60
2018-10-05T18:29:54.436Z,7.47
2018-10-05T18:32:23.169Z,7.10
2018-10-05T18:34:51.972Z,5.83
2018-10-05T18:37:20.671Z,6.00
2018-10-05T18:39:49.354Z,5.80
2018-10-05T18:42:18.268Z,5.00
2018-10-05T18:44:47.069Z,6.30
2018-10-05T18:47:15.813Z,4.50
2018-10-05T18:49:44.696Z,5.60
2018-10-05T18:52:13.557Z,5.63
2018-10-05T18:54:42.424Z,5.57
2018-10-05T18:57:20.226Z,5.77
2018-10-05T18:59:49.037Z,5.57
2018-10-05T19:02:18.618Z,5.63
2018-10-05T19:07:27.434Z,6.60
2018-10-05T19:09:56.489Z,5.57
2018-10-05T19:12:25.462Z,5.60
2018-10-05T19:14:54.152Z,6.13
2018-10-05T19:17:22.907Z,5.90
2018-10-05T19:19:51.705Z,6.03
2018-10-05T19:22:20.480Z,6.00
2018-10-05T19:24:49.096Z,6.60
2018-10-05T19:27:17.885Z,7.23
2018-10-05T19:29:46.582Z,6.13
2018-10-05T19:32:15.328Z,5.50
2018-10-05T19:34:44.332Z,6.40
2018-10-05T19:37:13.009Z,5.93
2018-10-05T19:39:41.761Z,5.70
2018-10-05T19:42:10.596Z,6.20
2018-10-05T19:44:39.300Z,5.57
2018-10-05T19:47:08.387Z,5.07
2018-10-05T19:49:37.188Z,6.50
2018-10-05T19:52:05.967Z,6.93
2018-10-05T19:54:34.721Z,6.63
2018-10-05T19:57:03.486Z,6.50
2018-10-05T19:59:32.313Z,6.30
2018-10-05T20:02:01.054Z,6.30
2018-10-05T20:04:29.692Z,6.50
2018-10-05T20:06:58.624Z,6.33
2018-10-05T20:09:27.465Z,6.00
2018-10-05T20:11:56.260Z,6.27
2018-10-05T20:14:25.242Z,6.20
2018-10-05T20:16:54.007Z,6.73
2018-10-05T20:19:22.856Z,6.83
2018-10-05T20:21:51.624Z,7.20
2018-10-05T20:24:20.518Z,7.13
2018-10-05T20:26:49.202Z,6.33
2018-10-05T20:29:18.087Z,6.75
2018-10-05T20:31:46.899Z,6.70
2018-10-05T20:34:15.961Z,8.15
2018-10-05T20:36:44.861Z,7.53
2018-10-05T20:39:13.174Z,8.43
2018-10-05T20:41:41.608Z,7.72
2018-10-05T20:44:10.659Z,6.95
2018-10-05T20:46:39.561Z,6.10
2018-10-05T20:49:08.381Z,5.13
2018-10-05T20:51:37.140Z,5.30
2018-10-05T20:54:05.841Z,6.67
2018-10-05T20:56:34.509Z,6.62
2018-10-05T20:59:03.326Z,7.50
2018-10-05T21:01:32.128Z,6.27
2018-10-05T21:04:00.544Z,5.80
2018-10-05T21:06:28.960Z,6.43
2018-10-05T21:08:57.487Z,5.85
2018-10-05T21:11:25.780Z,6.85
2018-10-05T21:13:54.244Z,6.30
2018-10-05T21:16:22.720Z,5.90
2018-10-05T21:18:51.052Z,5.67
2018-10-05T21:21:19.569Z,5.72
2018-10-05T21:23:47.923Z,6.47
2018-10-05T21:26:16.360Z,6.72
2018-10-05T21:28:44.755Z,5.20
2018-10-05T21:31:13.077Z,6.03
2018-10-05T21:33:41.461Z,6.30
2018-10-05T21:36:10.084Z,6.58
2018-10-05T21:38:38.434Z,5.97
2018-10-05T21:41:06.780Z,6.12
2018-10-05T21:43:35.141Z,5.95
2018-10-05T21:46:03.508Z,6.53
2018-10-05T21:48:31.835Z,5.90
2018-10-05T21:51:00.253Z,6.50
2018-10-05T21:53:28.569Z,5.83
2018-10-05T21:55:56.828Z,5.78
2018-10-05T21:58:25.114Z,5.22
2018-10-05T22:00:53.373Z,5.58
2018-10-05T22:03:21.703Z,6.40
2018-10-05T22:05:50.000Z,6.58
2018-10-05T22:08:18.279Z,6.37
2018-10-05T22:10:46.543Z,6.37
2018-10-05T22:13:14.980Z,7.15
2018-10-05T22:15:43.281Z,6.72
2018-10-05T22:18:11.781Z,6.50
2018-10-05T22:20:40.065Z,7.33
2018-10-05T22:23:08.438Z,6.20
2018-10-05T22:25:36.876Z,6.00
2018-10-05T22:28:05.308Z,7.33
2018-10-05T22:30:33.661Z,6.83
2018-10-05T22:33:01.931Z,6.62
2018-10-05T22:35:30.160Z,5.90
2018-10-05T22:37:58.568Z,5.80
2018-10-05T22:40:26.928Z,5.62
2018-10-05T22:42:55.348Z,6.17
2018-10-05T22:45:23.612Z,6.42
2018-10-05T22:47:51.872Z,6.55
2018-10-05T22:50:20.327Z,6.70
2018-10-05T22:52:48.608Z,6.30
2018-10-05T22:55:16.964Z,6.20
2018-10-05T22:57:45.254Z,6.85
2018-10-05T23:00:14.049Z,6.40
2018-10-05T23:02:42.957Z,6.20
2018-10-05T23:05:11.711Z,7.15
2018-10-05T23:07:40.884Z,6.90
2018-10-05T23:10:09.836Z,6.25
2018-10-05T23:12:38.516Z,6.17
2018-10-05T23:15:07.847Z,6.40
2018-10-05T23:17:36.753Z,6.58
2018-10-05T23:20:05.553Z,6.17
2018-10-05T23:22:34.382Z,6.08
2018-10-05T23:25:03.072Z,6.10
2018-10-05T23:27:31.745Z,6.30
2018-10-05T23:30:00.553Z,6.50
2018-10-05T23:32:29.208Z,6.53
2018-10-05T23:34:57.927Z,5.67
2018-10-05T23:37:26.564Z,6.90
2018-10-05T23:39:55.537Z,6.70
2018-10-05T23:42:24.552Z,6.60
2018-10-05T23:44:53.297Z,6.12
2018-10-05T23:47:21.903Z,6.60
2018-10-05T23:49:50.721Z,6.45
2018-10-05T23:52:53.382Z,6.42
2018-10-05T23:55:22.117Z,5.85
2018-10-05T23:57:50.966Z,6.55
